createdAt,value
2023-02-11T00:03:10.766Z,17.92
2023-02-11T00:08:16.992Z,17.90
2023-02-11T00:13:17.715Z,18.40
2023-02-11T00:18:18.496Z,17.60
2023-02-11T00:23:20.513Z,17.83
2023-02-11T00:28:21.179Z,17.05
2023-02-11T00:33:21.884Z,17.98
2023-02-11T00:38:23.957Z,17.02
2023-02-11T00:43:24.618Z,16.85
2023-02-11T00:48:25.277Z,16.73
2023-02-11T00:53:27.701Z,17.75
2023-02-11T00:58:29.191Z,16.85
2023-02-11T01:03:30.107Z,17.10
2023-02-11T01:08:32.345Z,18.45
2023-02-11T01:13:37.340Z,17.17
2023-02-11T01:18:39.187Z,16.90
2023-02-11T01:23:41.261Z,16.75
2023-02-11T01:28:42.017Z,17.80
2023-02-11T01:33:42.691Z,16.80
2023-02-11T01:38:45.630Z,17.85
2023-02-11T01:43:48.638Z,18.08
2023-02-11T01:48:53.538Z,18.10
2023-02-11T01:54:16.102Z,17.50
2023-02-11T01:59:23.615Z,17.83
2023-02-11T02:04:27.423Z,19.30
2023-02-11T02:09:38.730Z,18.15
2023-02-11T02:14:41.416Z,18.33
2023-02-11T02:20:22.137Z,17.83
2023-02-11T02:25:45.229Z,18.20
2023-02-11T02:31:14.971Z,18.15
2023-02-11T02:36:29.400Z,17.85
2023-02-11T02:41:32.366Z,18.00
2023-02-11T02:46:35.327Z,18.23
2023-02-11T02:51:53.615Z,18.30
2023-02-11T02:57:00.498Z,18.40
2023-02-11T03:02:10.916Z,18.23
2023-02-11T03:07:22.058Z,18.38
2023-02-11T03:12:24.448Z,17.65
2023-02-11T03:17:27.283Z,17.10
2023-02-11T03:22:35.985Z,16.83
2023-02-11T03:27:42.479Z,16.85
2023-02-11T03:32:49.913Z,17.73
2023-02-11T03:37:55.042Z,17.80
2023-02-11T03:42:59.510Z,17.00
2023-02-11T03:48:03.206Z,17.75
2023-02-11T03:53:05.919Z,17.83
2023-02-11T03:58:06.954Z,19.20
2023-02-11T04:03:08.360Z,19.45
2023-02-11T04:08:10.517Z,19.42
2023-02-11T04:13:11.228Z,20.08
2023-02-11T04:18:11.868Z,20.33
2023-02-11T04:23:14.031Z,19.50
2023-02-11T04:28:14.713Z,19.83
2023-02-11T04:33:15.431Z,18.35
2023-02-11T04:38:17.560Z,20.45
2023-02-11T04:43:18.285Z,19.40
2023-02-11T04:48:18.955Z,19.27
2023-02-11T04:53:21.225Z,19.40
2023-02-11T04:58:22.198Z,19.15
2023-02-11T05:03:22.987Z,18.35
2023-02-11T05:08:24.956Z,19.77
2023-02-11T05:13:25.769Z,19.50
2023-02-11T05:18:26.516Z,21.63
2023-02-11T05:23:28.507Z,20.38
2023-02-11T05:28:29.339Z,21.63
2023-02-11T05:33:30.077Z,20.55
2023-02-11T05:38:32.108Z,20.60
2023-02-11T05:43:35.112Z,20.40
2023-02-11T05:48:35.977Z,22.42
2023-02-11T05:53:38.092Z,20.95
2023-02-11T05:58:39.689Z,20.90
2023-02-11T06:03:40.385Z,22.70
2023-02-11T06:08:43.054Z,21.40
2023-02-11T06:13:44.111Z,22.23
2023-02-11T06:18:44.763Z,21.40
2023-02-11T06:23:46.785Z,22.75
2023-02-11T06:28:47.431Z,23.00
2023-02-11T06:33:49.835Z,22.30
2023-02-11T06:38:52.304Z,22.58
2023-02-11T06:43:53.774Z,21.35
2023-02-11T06:48:54.514Z,20.77
2023-02-11T06:53:56.502Z,21.60
2023-02-11T06:58:57.951Z,20.20
2023-02-11T07:03:58.600Z,22.90
2023-02-11T07:09:00.890Z,22.27
2023-02-11T07:14:04.706Z,21.90
2023-02-11T07:19:05.522Z,23.00
2023-02-11T07:24:11.107Z,22.48
2023-02-11T07:29:12.094Z,22.50
2023-02-11T07:34:12.818Z,21.35
2023-02-11T07:39:14.835Z,22.80
2023-02-11T07:44:15.677Z,22.58
2023-02-11T07:49:16.439Z,21.83
2023-02-11T07:54:18.812Z,22.48
2023-02-11T07:59:19.783Z,21.83
2023-02-11T08:04:20.449Z,22.23
2023-02-11T08:09:22.470Z,21.88
2023-02-11T08:14:25.224Z,22.75
2023-02-11T08:19:26.893Z,21.15
2023-02-11T08:24:29.056Z,20.67
2023-02-11T08:29:29.814Z,20.83
2023-02-11T08:34:30.628Z,21.10
2023-02-11T08:39:32.760Z,21.75
2023-02-11T08:44:33.423Z,21.55
2023-02-11T08:49:34.212Z,21.52
2023-02-11T08:54:36.219Z,20.92
2023-02-11T08:59:37.137Z,24.05
2023-02-11T09:04:37.816Z,20.48
2023-02-11T09:09:40.015Z,19.95
2023-02-11T09:14:41.997Z,19.92
2023-02-11T09:19:42.762Z,20.33
2023-02-11T09:24:44.827Z,21.65
2023-02-11T09:29:45.620Z,21.40
2023-02-11T09:34:46.364Z,22.42
2023-02-11T09:39:48.610Z,21.17
2023-02-11T09:44:50.078Z,21.45
2023-02-11T09:49:54.663Z,20.17
2023-02-11T09:54:59.041Z,21.70
2023-02-11T09:59:59.813Z,23.48
2023-02-11T10:05:14.452Z,21.70
2023-02-11T10:10:28.210Z,23.88
2023-02-11T10:15:43.405Z,22.95
2023-02-11T10:20:52.016Z,23.38
2023-02-11T10:25:57.094Z,22.83
2023-02-11T10:31:00.761Z,21.45
2023-02-11T10:36:01.768Z,21.08
2023-02-11T10:41:03.905Z,21.25
2023-02-11T10:46:06.587Z,20.52
2023-02-11T10:51:18.621Z,19.65
2023-02-11T10:56:28.076Z,21.80
2023-02-11T11:01:44.416Z,21.20
2023-02-11T11:06:45.314Z,20.60
2023-02-11T11:11:54.496Z,20.30
2023-02-11T11:16:56.196Z,21.75
2023-02-11T11:21:57.711Z,20.88
2023-02-11T11:27:02.409Z,21.17
2023-02-11T11:32:06.533Z,19.35
2023-02-11T11:37:13.004Z,21.55
2023-02-11T11:42:29.504Z,20.40
2023-02-11T11:47:35.396Z,19.02
2023-02-11T11:52:42.619Z,19.75
2023-02-11T11:57:45.117Z,18.83
2023-02-11T12:03:09.942Z,20.05
2023-02-11T12:08:22.458Z,19.15
2023-02-11T12:13:40.645Z,19.95
2023-02-11T12:19:07.814Z,19.15
2023-02-11T12:24:21.692Z,20.13
2023-02-11T12:29:33.032Z,20.00
2023-02-11T12:35:00.223Z,19.50
2023-02-11T12:40:13.540Z,18.00
2023-02-11T12:45:28.265Z,19.00
2023-02-11T12:50:35.979Z,20.60
2023-02-11T12:55:41.076Z,18.98
2023-02-11T13:00:49.589Z,20.13
2023-02-11T13:05:55.014Z,19.63
2023-02-11T13:10:58.805Z,18.77
2023-02-11T13:16:06.680Z,18.23
2023-02-11T13:21:23.175Z,19.27
2023-02-11T13:26:31.980Z,19.77
2023-02-11T13:31:34.258Z,19.05
2023-02-11T13:36:35.245Z,18.55
2023-02-11T13:41:39.794Z,19.30
2023-02-11T13:46:55.665Z,18.13
2023-02-11T13:51:57.663Z,18.85
2023-02-11T13:57:24.576Z,19.40
2023-02-11T14:02:48.283Z,17.42
2023-02-11T14:08:33.090Z,18.02
2023-02-11T14:13:34.847Z,18.13
2023-02-11T14:19:04.146Z,18.60
2023-02-11T14:24:47.921Z,18.25
2023-02-11T14:29:59.954Z,19.35
2023-02-11T14:35:10.556Z,17.45
2023-02-11T14:40:19.712Z,17.95
2023-02-11T14:45:24.902Z,18.88
2023-02-11T14:50:29.079Z,17.90
2023-02-11T14:55:33.173Z,17.77
2023-02-11T15:00:34.437Z,17.83
2023-02-11T15:05:37.276Z,18.35
2023-02-11T15:10:43.614Z,18.52
2023-02-11T15:15:46.585Z,18.27
2023-02-11T15:20:49.636Z,18.60
2023-02-11T15:25:53.031Z,18.08
2023-02-11T15:31:02.426Z,16.58
2023-02-11T15:36:05.208Z,16.58
2023-02-11T15:41:07.563Z,16.08
2023-02-11T15:46:12.248Z,16.95
2023-02-11T15:51:29.469Z,17.60
2023-02-11T15:56:33.266Z,18.13
2023-02-11T16:01:35.887Z,17.08
2023-02-11T16:06:40.561Z,18.27
2023-02-11T16:11:56.648Z,18.02
2023-02-11T16:17:00.903Z,16.90
2023-02-11T16:22:10.324Z,17.38
2023-02-11T16:27:22.315Z,17.42
2023-02-11T16:32:25.503Z,17.88
2023-02-11T16:37:28.264Z,19.00
2023-02-11T16:42:29.020Z,20.10
2023-02-11T16:47:32.104Z,20.38
2023-02-11T16:52:34.858Z,19.23
2023-02-11T16:57:35.546Z,20.65
2023-02-11T17:02:38.286Z,23.13
2023-02-11T17:07:40.460Z,21.02
2023-02-11T17:12:41.213Z,21.60
2023-02-11T17:17:41.931Z,21.48
2023-02-11T17:22:44.166Z,22.65
2023-02-11T17:27:45.520Z,22.50
2023-02-11T17:32:47.288Z,23.20
2023-02-11T17:37:49.500Z,21.70
2023-02-11T17:42:51.275Z,23.00
2023-02-11T17:47:52.339Z,22.83
2023-02-11T17:52:54.956Z,21.42
2023-02-11T17:57:56.065Z,21.48
2023-02-11T18:02:57.806Z,21.17
2023-02-11T18:07:59.857Z,22.60
2023-02-11T18:13:00.828Z,25.33
2023-02-11T18:18:01.651Z,23.50
2023-02-11T18:23:04.325Z,23.10
2023-02-11T18:28:05.218Z,23.98
2023-02-11T18:33:08.864Z,23.25
2023-02-11T18:38:10.965Z,23.85
2023-02-11T18:43:11.681Z,22.65
2023-02-11T18:48:13.074Z,24.00
2023-02-11T18:53:16.137Z,23.10
2023-02-11T18:58:17.930Z,24.55
2023-02-11T19:03:18.742Z,22.90
2023-02-11T19:08:20.792Z,22.20
2023-02-11T19:13:21.459Z,23.05
2023-02-11T19:18:22.245Z,22.52
2023-02-11T19:23:24.300Z,22.00
2023-02-11T19:28:25.170Z,22.25
2023-02-11T19:33:26.218Z,21.17
2023-02-11T19:38:28.318Z,22.20
2023-02-11T19:43:29.268Z,20.52
2023-02-11T19:48:30.139Z,20.45
2023-02-11T19:53:32.378Z,21.48
2023-02-11T19:58:33.069Z,19.80
2023-02-11T20:03:33.926Z,19.25
2023-02-11T20:08:36.642Z,19.23
2023-02-11T20:13:37.815Z,20.33
2023-02-11T20:18:39.501Z,18.85
2023-02-11T20:23:41.647Z,19.30
2023-02-11T20:28:42.917Z,19.42
2023-02-11T20:33:44.794Z,19.90
2023-02-11T20:38:47.244Z,19.55
2023-02-11T20:43:49.764Z,20.38
2023-02-11T20:48:51.133Z,20.15
2023-02-11T20:53:53.869Z,20.83
2023-02-11T20:58:54.624Z,70.63
2023-02-11T21:03:58.099Z,50.08
2023-02-11T21:09:00.433Z,27.73
2023-02-11T21:14:03.029Z,22.23
2023-02-11T21:19:04.016Z,21.33
2023-02-11T21:24:07.322Z,20.23
2023-02-11T21:29:09.392Z,21.33
2023-02-11T21:34:11.590Z,21.90
2023-02-11T21:39:15.202Z,21.08
2023-02-11T21:44:16.019Z,22.40
2023-02-11T21:49:16.782Z,21.35
2023-02-11T21:54:18.883Z,22.25
2023-02-11T21:59:19.672Z,20.75
2023-02-11T22:04:20.423Z,22.67
2023-02-11T22:09:22.501Z,20.85
2023-02-11T22:14:23.268Z,22.98
2023-02-11T22:19:25.037Z,22.77
2023-02-11T22:24:27.185Z,23.17
2023-02-11T22:29:27.884Z,24.90
2023-02-11T22:34:28.547Z,24.92
2023-02-11T22:39:31.130Z,23.52
2023-02-11T22:44:31.829Z,25.00
2023-02-11T22:49:33.288Z,23.15
2023-02-11T22:54:36.141Z,25.88
2023-02-11T22:59:36.862Z,24.83
2023-02-11T23:04:37.586Z,26.77
2023-02-11T23:09:39.628Z,25.15
2023-02-11T23:14:40.286Z,25.73
2023-02-11T23:19:41.007Z,26.25
2023-02-11T23:24:43.172Z,27.13
2023-02-11T23:29:43.902Z,25.27
2023-02-11T23:34:44.817Z,26.80
2023-02-11T23:39:46.858Z,26.33
2023-02-11T23:44:47.740Z,26.33
2023-02-11T23:49:48.436Z,28.25
2023-02-11T23:54:50.447Z,29.38
2023-02-11T23:59:51.283Z,29.00
